Time;durP1;ratioP1;P1;durP2;ratioP2;P2;SDS_P1;SDS_P2;PMS_P1;PMS_P2;Temp;Humidity;BMP_temperature;BMP_pressure;BME280_temperature;BME280_humidity;BME280_pressure;Samples;Min_cycle;Max_cycle;Signal;HPM_P1;HPM_P2
2022/09/13 00:01:31;;;;;;;8.57;7.88;;;;;;;18.27;nan;100747.69;5052732;28;20124;-63
2022/09/13 00:03:56;;;;;;;10.13;8.20;;;;;;;18.31;nan;100758.03;5052994;28;20091;-61
2022/09/13 00:06:22;;;;;;;9.55;8.07;;;;;;;18.39;nan;100771.72;5052900;28;20545;-61
2022/09/13 00:08:48;;;;;;;8.38;7.57;;;;;;;18.38;nan;100766.50;5052676;28;20459;-61
2022/09/13 00:11:17;;;;;;;8.90;7.88;;;;;;;18.43;nan;100767.91;5067923;28;20400;-61
2022/09/13 00:13:42;;;;;;;9.00;8.05;;;;;;;18.43;nan;100775.03;5052519;28;20032;-60
2022/09/13 00:16:12;;;;;;;8.57;7.80;;;;;;;18.75;nan;100834.25;5052414;28;20037;-61
2022/09/13 00:18:38;;;;;;;8.90;8.00;;;;;;;18.70;nan;100818.56;5052594;28;20380;-61
2022/09/13 00:21:12;;;;;;;8.45;7.70;;;;;;;18.76;nan;100827.97;5052672;28;20033;-61
2022/09/13 00:23:37;;;;;;;9.57;8.63;;;;;;;18.71;nan;100832.75;5034494;28;20509;-61
2022/09/13 00:26:08;;;;;;;9.35;7.70;;;;;;;18.72;nan;100829.13;5052735;28;20127;-63
2022/09/13 00:28:33;;;;;;;9.70;8.82;;;;;;;18.69;nan;100832.00;5052409;28;20288;-60
2022/09/13 00:31:00;;;;;;;9.90;8.70;;;;;;;18.40;nan;100792.09;5052527;28;20029;-61
2022/09/13 00:33:26;;;;;;;10.80;9.70;;;;;;;18.64;nan;100826.13;5034546;28;20040;-62
2022/09/13 00:35:51;;;;;;;10.60;9.60;;;;;;;18.70;nan;100839.91;5052381;28;20401;-61
2022/09/13 00:38:16;;;;;;;12.43;10.30;;;;;;;18.72;nan;100842.44;5052255;28;20187;-61
2022/09/13 00:40:42;;;;;;;10.07;9.05;;;;;;;18.53;nan;100805.50;5052181;28;20434;-61
2022/09/13 00:43:37;;;;;;;11.32;10.30;;;;;;;18.75;nan;100831.59;5052022;28;20466;-60
2022/09/13 00:46:03;;;;;;;10.80;9.70;;;;;;;18.38;nan;100771.81;5051014;28;20063;-61
2022/09/13 00:48:28;;;;;;;11.05;10.05;;;;;;;18.72;nan;100842.44;5051106;28;20033;-61
2022/09/13 00:50:55;;;;;;;11.32;10.27;;;;;;;18.68;nan;100847.13;5052238;28;20036;-60
2022/09/13 00:53:29;;;;;;;12.02;10.80;;;;;;;18.59;nan;100841.56;5050884;28;20092;-62
2022/09/13 00:55:59;;;;;;;11.82;10.68;;;;;;;18.55;nan;100830.25;5050831;28;20060;-61
2022/09/13 00:58:34;;;;;;;11.18;10.07;;;;;;;18.62;nan;100849.38;5050871;28;20037;-61
2022/09/13 01:01:01;;;;;;;11.57;10.43;;;;;;;18.59;nan;100849.56;5050884;28;20025;-61
2022/09/13 01:03:28;;;;;;;12.48;10.82;;;;;;;18.59;nan;100861.09;5050788;28;20033;-62
2022/09/13 01:05:58;;;;;;;10.48;9.48;;;;;;;18.50;nan;100835.84;5050738;28;20476;-61
2022/09/13 01:08:23;;;;;;;11.02;9.93;;;;;;;18.23;nan;100781.66;5050411;28;20079;-61
2022/09/13 01:10:52;;;;;;;12.23;11.05;;;;;;;18.16;nan;100763.50;5052106;28;20064;-62
2022/09/13 01:13:24;;;;;;;11.55;10.32;;;;;;;18.16;nan;100763.50;5050585;28;20040;-61
2022/09/13 01:15:50;;;;;;;12.38;11.18;;;;;;;18.19;nan;100764.16;5050568;28;20511;-62
2022/09/13 01:18:15;;;;;;;12.93;11.05;;;;;;;18.02;nan;100772.38;5050513;28;20392;-61
2022/09/13 01:21:11;;;;;;;11.77;10.57;;;;;;;18.22;nan;100800.41;5051197;28;20029;-61
2022/09/13 01:24:12;;;;;;;13.10;10.02;;;;;;;18.39;nan;100826.81;5067431;28;20033;-62
2022/09/13 01:26:49;;;;;;;14.90;10.45;;;;;;;18.37;nan;100824.25;4990144;28;20602;-61
2022/09/13 01:29:20;;;;;;;12.20;11.07;;;;;;;18.36;nan;100821.69;5043619;28;20315;-61
2022/09/13 01:31:51;;;;;;;13.63;10.75;;;;;;;18.16;nan;100782.16;5052011;28;20029;-61
2022/09/13 01:34:17;;;;;;;;;;;;;;;18.37;nan;100816.28;5051176;28;20534;-61
2022/09/13 01:37:11;;;;;;;11.60;10.40;;;;;;;18.36;nan;100813.69;5055500;28;19913;-61
2022/09/13 01:39:55;;;;;;;12.82;10.55;;;;;;;18.35;nan;100815.53;5054128;28;20044;-60
2022/09/13 01:42:29;;;;;;;11.77;10.40;;;;;;;18.34;nan;100807.59;5055403;28;20064;-61
2022/09/13 01:45:06;;;;;;;12.48;11.18;;;;;;;18.37;nan;100807.41;5054395;28;20025;-61
2022/09/13 01:47:37;;;;;;;11.93;10.65;;;;;;;18.37;nan;100812.75;5055430;28;20037;-60
2022/09/13 01:50:15;;;;;;;11.30;10.25;;;;;;;18.36;nan;100801.22;5055532;28;20033;-61
2022/09/13 01:52:53;;;;;;;12.50;11.30;;;;;;;18.31;nan;100800.69;5054171;28;20029;-62
2022/09/13 01:55:27;;;;;;;12.85;11.55;;;;;;;18.32;nan;100810.38;5054201;28;20028;-61
2022/09/13 01:58:04;;;;;;;13.73;11.30;;;;;;;18.07;nan;100758.78;5055260;28;20052;-61
2022/09/13 02:00:36;;;;;;;14.80;11.70;;;;;;;18.32;nan;100798.88;5054122;28;20490;-60
2022/09/13 02:03:09;;;;;;;13.40;11.98;;;;;;;17.82;nan;100714.22;5054098;28;20029;-61
2022/09/13 02:05:39;;;;;;;13.73;12.05;;;;;;;18.33;nan;100804.09;5055270;28;20495;-61
2022/09/13 02:08:11;;;;;;;13.35;12.05;;;;;;;18.31;nan;100802.47;5053744;28;20033;-62
2022/09/13 02:10:41;;;;;;;17.45;12.68;;;;;;;18.11;nan;100771.81;5054767;28;20546;-62
2022/09/13 02:13:12;;;;;;;13.32;11.90;;;;;;;18.28;nan;100798.22;5055080;28;20365;-61
2022/09/13 02:15:43;;;;;;;12.70;11.35;;;;;;;18.17;nan;100776.75;5053751;28;20039;-63
2022/09/13 02:18:14;;;;;;;12.63;11.20;;;;;;;17.94;nan;100748.94;5053651;28;20037;-61
2022/09/13 02:20:43;;;;;;;15.15;12.00;;;;;;;18.22;nan;100808.41;5053676;28;20154;-62
2022/09/13 02:23:20;;;;;;;13.52;12.20;;;;;;;18.20;nan;100799.66;5053782;28;20025;-62
2022/09/13 02:25:46;;;;;;;14.07;12.63;;;;;;;17.81;nan;100736.47;5053490;28;20464;-61
2022/09/13 02:28:16;;;;;;;13.75;12.45;;;;;;;18.16;nan;100791.00;5053239;28;20472;-61
2022/09/13 02:30:45;;;;;;;14.13;12.68;;;;;;;18.01;nan;100769.84;5053481;28;20037;-63
2022/09/13 02:33:28;;;;;;;13.90;12.55;;;;;;;18.15;nan;100801.78;5053227;28;20033;-61
2022/09/13 02:35:59;;;;;;;14.10;12.65;;;;;;;18.14;nan;100803.56;5053149;28;20151;-61
2022/09/13 02:38:26;;;;;;;;;;;;;;;18.15;nan;100799.97;5053876;28;20029;-62
2022/09/13 02:41:06;;;;;;;13.50;12.20;;;;;;;17.08;nan;100621.34;5069988;28;19916;-61
2022/09/13 02:43:36;;;;;;;17.52;13.90;;;;;;;18.14;nan;100797.38;5036504;28;20521;-63
2022/09/13 02:46:02;;;;;;;15.20;12.95;;;;;;;18.12;nan;100794.84;5052959;28;20033;-61
2022/09/13 02:48:35;;;;;;;14.50;13.10;;;;;;;18.11;nan;100798.44;5054248;28;20106;-62
2022/09/13 02:51:16;;;;;;;13.98;12.52;;;;;;;17.80;nan;100745.44;5053197;28;20220;-61
2022/09/13 02:53:54;;;;;;;14.93;13.50;;;;;;;18.11;nan;100798.44;5036297;28;20040;-61
2022/09/13 02:56:29;;;;;;;16.60;14.85;;;;;;;17.74;nan;100748.47;5054195;28;20033;-61
2022/09/13 02:59:05;;;;;;;19.17;12.77;;;;;;;18.11;nan;100816.22;5053130;28;20024;-62
2022/09/13 03:01:32;;;;;;;15.50;13.93;;;;;;;18.09;nan;100808.34;5053119;28;20040;-63
2022/09/13 03:03:57;;;;;;;17.52;14.68;;;;;;;18.11;nan;100805.56;5052883;28;20025;-61
2022/09/13 03:06:24;;;;;;;14.52;13.02;;;;;;;18.09;nan;100818.16;5052724;28;20037;-60
2022/09/13 03:08:50;;;;;;;16.35;12.95;;;;;;;18.08;nan;100803.09;5052606;28;20130;-62
2022/09/13 03:11:37;;;;;;;15.35;13.63;;;;;;;17.79;nan;100765.00;5052517;28;20060;-61
2022/09/13 03:14:53;;;;;;;15.98;13.48;;;;;;;18.06;nan;100807.69;5053768;28;20541;-61
2022/09/13 03:17:26;;;;;;;16.33;13.82;;;;;;;18.04;nan;100798.94;5019801;28;20049;-61
2022/09/13 03:20:08;;;;;;;13.45;12.10;;;;;;;17.98;nan;100805.50;5052417;28;20029;-61
2022/09/13 03:22:39;;;;;;;;;;;;;;;17.99;nan;100801.88;5052899;28;20477;-61
2022/09/13 03:25:07;;;;;;;;;;;;;;;17.97;nan;100802.00;5054030;28;20379;-62
2022/09/13 03:27:37;;;;;;;15.30;13.07;;;;;;;17.41;nan;100716.81;5053559;28;20044;-62
2022/09/13 03:30:06;;;;;;;16.85;14.18;;;;;;;17.95;nan;100805.69;5053385;28;20033;-63
2022/09/13 03:32:51;;;;;;;17.27;13.98;;;;;;;17.91;nan;100807.72;5053538;28;20029;-62
2022/09/13 03:35:22;;;;;;;15.00;13.23;;;;;;;17.91;nan;100810.38;5052331;28;20037;-63
2022/09/13 03:38:00;;;;;;;16.17;14.43;;;;;;;17.90;nan;100816.63;5053380;28;20035;-62
2022/09/13 03:40:37;;;;;;;16.30;14.18;;;;;;;17.92;nan;100811.22;5053158;28;20513;-62
2022/09/13 03:43:11;;;;;;;16.98;15.25;;;;;;;17.90;nan;100819.31;5051854;28;20476;-62
2022/09/13 03:45:43;;;;;;;16.42;14.55;;;;;;;17.71;nan;100767.31;5053340;28;20025;-62
2022/09/13 03:48:09;;;;;;;18.58;14.90;;;;;;;17.74;nan;100773.31;5051744;28;20063;-60
2022/09/13 03:50:35;;;;;;;17.48;15.68;;;;;;;17.95;nan;100811.88;5051699;28;20025;-62
2022/09/13 03:53:05;;;;;;;16.85;15.25;;;;;;;17.66;nan;100759.59;5053251;28;20048;-63
2022/09/13 03:55:31;;;;;;;18.90;15.87;;;;;;;17.82;nan;100794.97;5052958;28;20533;-61
2022/09/13 03:57:57;;;;;;;19.35;16.20;;;;;;;17.88;nan;100801.72;5051015;28;20468;-62
2022/09/13 04:00:22;;;;;;;18.52;16.63;;;;;;;17.81;nan;100793.25;5051550;28;20044;-63
2022/09/13 04:02:48;;;;;;;20.80;17.67;;;;;;;17.73;nan;100792.03;5052895;28;20110;-62
2022/09/13 04:05:13;;;;;;;18.10;16.20;;;;;;;17.62;nan;100784.72;5052711;28;20459;-61
2022/09/13 04:07:38;;;;;;;20.00;16.88;;;;;;;17.73;nan;100808.84;5052744;28;20037;-61
2022/09/13 04:10:04;;;;;;;20.58;18.48;;;;;;;17.39;nan;100758.63;5052745;28;20052;-63
2022/09/13 04:12:30;;;;;;;21.05;18.83;;;;;;;17.66;nan;100809.34;5052505;28;20400;-61
2022/09/13 04:14:56;;;;;;;21.95;19.60;;;;;;;17.65;nan;100802.28;5051913;28;20036;-62
2022/09/13 04:17:21;;;;;;;21.75;18.48;;;;;;;17.55;nan;100798.47;5051389;28;20112;-62
2022/09/13 04:19:47;;;;;;;21.38;18.23;;;;;;;17.50;nan;100795.22;5052595;28;20091;-61
2022/09/13 04:22:12;;;;;;;22.13;19.60;;;;;;;17.41;nan;100799.31;5052793;28;20040;-62
2022/09/13 04:24:38;;;;;;;21.23;18.98;;;;;;;17.41;nan;100816.13;5051452;28;20473;-60
2022/09/13 04:27:04;;;;;;;23.02;19.92;;;;;;;17.27;nan;100794.84;5052577;28;20426;-61
2022/09/13 04:29:30;;;;;;;22.88;20.13;;;;;;;17.31;nan;100824.75;5052457;28;20041;-61
2022/09/13 04:31:56;;;;;;;23.42;19.83;;;;;;;17.28;nan;100838.22;5051158;28;20036;-63
2022/09/13 04:34:21;;;;;;;24.15;20.83;;;;;;;17.24;nan;100828.75;5051034;28;20400;-63
2022/09/13 04:36:48;;;;;;;27.23;22.50;;;;;;;17.23;nan;100824.34;5052242;28;20365;-61
2022/09/13 04:39:13;;;;;;;24.70;21.98;;;;;;;16.83;nan;100767.38;5051112;28;20058;-63
2022/09/13 04:41:40;;;;;;;26.65;23.63;;;;;;;17.20;nan;100846.69;5052230;28;20037;-63
2022/09/13 04:44:05;;;;;;;30.55;23.25;;;;;;;16.82;nan;100776.28;5052068;28;20068;-61
2022/09/13 04:46:30;;;;;;;28.83;24.05;;;;;;;17.19;nan;100838.81;5052103;28;20198;-61
2022/09/13 04:48:56;;;;;;;31.35;23.50;;;;;;;16.93;nan;100784.47;5051917;28;20071;-61
2022/09/13 04:51:22;;;;;;;28.05;24.00;;;;;;;17.24;nan;100829.59;5052083;28;20460;-61
2022/09/13 04:53:53;;;;;;;30.02;22.92;;;;;;;17.10;nan;100807.44;5052222;28;20043;-62
2022/09/13 04:56:18;;;;;;;30.33;23.77;;;;;;;17.28;nan;100832.91;5051971;28;20171;-62
2022/09/13 04:58:44;;;;;;;29.80;23.55;;;;;;;16.94;nan;100775.56;5052161;28;20120;-62
2022/09/13 05:01:09;;;;;;;27.13;23.75;;;;;;;17.36;nan;100838.66;5052049;28;20425;-62
2022/09/13 05:03:36;;;;;;;30.92;24.65;;;;;;;17.05;nan;100769.59;5051760;28;20033;-62
2022/09/13 05:06:12;;;;;;;29.50;23.77;;;;;;;17.36;nan;100828.00;5065095;28;20044;-60
2022/09/13 05:08:38;;;;;;;29.35;24.50;;;;;;;17.38;nan;100832.28;5042534;28;20041;-62
2022/09/13 05:11:04;;;;;;;31.63;24.23;;;;;;;17.44;nan;100836.38;5053225;28;20029;-62
2022/09/13 05:13:31;;;;;;;30.20;25.05;;;;;;;17.22;nan;100790.75;5054391;28;20044;-63
2022/09/13 05:15:58;;;;;;;31.95;25.30;;;;;;;17.49;nan;100834.28;5054628;28;20551;-62
2022/09/13 05:18:29;;;;;;;28.50;23.83;;;;;;;17.24;nan;100803.00;5054520;28;20044;-62
2022/09/13 05:20:55;;;;;;;31.30;25.45;;;;;;;17.53;nan;100843.81;5055946;28;20033;-61
2022/09/13 05:23:21;;;;;;;32.28;26.40;;;;;;;17.53;nan;100841.13;5054794;28;20033;-61
2022/09/13 05:25:58;;;;;;;27.63;24.65;;;;;;;17.59;nan;100848.78;5054801;28;20043;-61
2022/09/13 05:28:24;;;;;;;28.88;23.95;;;;;;;17.30;nan;100785.81;5055582;28;20115;-61
2022/09/13 05:31:00;;;;;;;31.70;24.92;;;;;;;17.69;nan;100859.69;5054431;28;20059;-61
2022/09/13 05:33:28;;;;;;;28.52;24.75;;;;;;;17.35;nan;100795.22;5055741;28;20043;-60
2022/09/13 05:35:53;;;;;;;30.50;25.58;;;;;;;17.47;nan;100798.06;5055739;28;20056;-62
2022/09/13 05:38:20;;;;;;;28.80;23.92;;;;;;;17.84;nan;100869.41;5054464;28;20413;-62
2022/09/13 05:40:45;;;;;;;28.30;23.17;;;;;;;17.90;nan;100853.06;5054355;28;20025;-62
2022/09/13 05:43:11;;;;;;;28.65;22.35;;;;;;;17.96;nan;100853.53;5053953;28;20542;-63
2022/09/13 05:45:36;;;;;;;22.40;19.50;;;;;;;17.69;nan;100798.47;5055504;28;20036;-62
2022/09/13 05:48:01;;;;;;;26.05;20.55;;;;;;;18.10;nan;100852.66;5055497;28;20037;-61
2022/09/13 05:50:27;;;;;;;23.70;18.88;;;;;;;18.08;nan;100841.25;5055333;28;20036;-61
2022/09/13 05:52:53;;;;;;;19.95;17.85;;;;;;;17.35;nan;100699.44;5055159;28;20044;-61
2022/09/13 05:55:18;;;;;;;20.85;17.23;;;;;;;18.18;nan;100826.41;5054269;28;20028;-60
2022/09/13 05:57:44;;;;;;;19.33;16.88;;;;;;;18.22;nan;100843.03;5055191;28;20040;-61
2022/09/13 06:00:09;;;;;;;21.17;17.17;;;;;;;18.37;nan;100861.56;5055054;28;20431;-61
2022/09/13 06:02:35;;;;;;;18.15;16.33;;;;;;;18.03;nan;100781.25;5055151;28;20037;-61
2022/09/13 06:05:00;;;;;;;17.52;15.73;;;;;;;18.20;nan;100804.97;5055439;28;20510;-61
2022/09/13 06:07:26;;;;;;;20.73;16.55;;;;;;;18.43;nan;100862.97;5053657;28;20045;-62
2022/09/13 06:09:52;;;;;;;17.38;14.85;;;;;;;18.13;nan;100814.31;5054446;28;20052;-62
2022/09/13 06:12:17;;;;;;;16.17;14.43;;;;;;;18.14;nan;100813.38;5053393;28;20041;-62
2022/09/13 06:14:42;;;;;;;17.05;14.32;;;;;;;18.43;nan;100863.84;5053904;28;20076;-62
2022/09/13 06:17:08;;;;;;;15.38;13.55;;;;;;;18.50;nan;100861.69;5052581;28;20476;-61
2022/09/13 06:19:34;;;;;;;15.35;13.77;;;;;;;18.60;nan;100868.09;5053272;28;20404;-62
2022/09/13 06:21:59;;;;;;;15.95;13.02;;;;;;;18.62;nan;100874.22;5053361;28;20076;-62
2022/09/13 06:24:24;;;;;;;13.20;11.88;;;;;;;18.64;nan;100866.97;5053737;28;20041;-62
2022/09/13 06:26:49;;;;;;;16.70;12.68;;;;;;;18.63;nan;100873.25;5053557;28;20561;-60
2022/09/13 06:29:15;;;;;;;14.02;12.32;;;;;;;18.68;nan;100871.13;5053349;28;20090;-62
2022/09/13 06:31:43;;;;;;;14.75;11.73;;;;;;;18.70;nan;100893.22;5052133;28;20029;-62
2022/09/13 06:34:11;;;;;;;12.90;11.23;;;;;;;18.41;nan;100820.47;5053542;28;20087;-61
2022/09/13 06:36:37;;;;;;;17.52;12.02;;;;;;;18.47;nan;100809.41;5052006;28;20373;-62
2022/09/13 06:39:04;;;;;;;13.45;11.25;;;;;;;18.96;nan;100865.69;5053199;28;20043;-61
2022/09/13 06:41:29;;;;;;;11.57;10.38;;;;;;;19.16;nan;100864.38;5051182;28;20048;-60
2022/09/13 06:43:57;;;;;;;9.02;8.15;;;;;;;19.37;nan;100868.25;5052093;28;20041;-62
2022/09/13 06:46:22;;;;;;;9.52;7.88;;;;;;;19.47;nan;100864.00;5050793;28;20064;-60
2022/09/13 06:48:48;;;;;;;7.68;6.95;;;;;;;19.56;nan;100863.38;5053020;28;20119;-60
2022/09/13 06:51:19;;;;;;;7.65;6.95;;;;;;;19.51;nan;100817.47;5051643;28;20086;-63
2022/09/13 06:53:47;;;;;;;5.95;5.35;;;;;;;19.93;nan;100868.84;5050828;28;20044;-62
2022/09/13 06:56:18;;;;;;;6.45;5.85;;;;;;;19.72;nan;100830.28;5050558;28;20037;-61
2022/09/13 06:58:44;;;;;;;7.22;4.93;;;;;;;20.10;nan;100868.50;5051244;28;20048;-62
2022/09/13 07:01:18;;;;;;;6.72;4.82;;;;;;;20.27;nan;100886.00;5052688;28;20057;-62
2022/09/13 07:03:52;;;;;;;5.47;4.72;;;;;;;19.90;nan;100818.28;5051271;28;20459;-62
2022/09/13 07:06:23;;;;;;;4.78;3.53;;;;;;;19.94;nan;100835.78;5051659;28;20033;-61
2022/09/13 07:08:50;;;;;;;3.83;3.25;;;;;;;19.80;nan;100812.75;5015212;28;1070170;-63
2022/09/13 07:11:19;;;;;;;4.65;4.00;;;;;;;19.68;nan;100832.28;5052593;28;20051;-63
2022/09/13 07:13:55;;;;;;;5.82;3.47;;;;;;;19.39;nan;100806.78;5052142;28;20124;-63
2022/09/13 07:16:23;;;;;;;4.82;3.72;;;;;;;19.47;nan;100856.00;5053482;28;20035;-63
2022/09/13 07:18:59;;;;;;;4.63;3.42;;;;;;;18.92;nan;100788.63;5052501;28;20052;-64
2022/09/13 07:21:25;;;;;;;4.82;3.75;;;;;;;19.54;nan;100875.13;5053599;28;20037;-62
2022/09/13 07:23:52;;;;;;;7.03;3.45;;;;;;;19.65;nan;100877.91;5053444;28;20033;-63
2022/09/13 07:26:18;;;;;;;3.35;3.05;;;;;;;19.66;nan;100874.28;5052043;28;20460;-63
2022/09/13 07:28:45;;;;;;;8.00;3.30;;;;;;;19.88;nan;100906.53;5034203;28;20030;-62
2022/09/13 07:31:13;;;;;;;4.57;2.95;;;;;;;19.69;nan;100851.84;5033275;28;20033;-63
2022/09/13 07:33:40;;;;;;;5.97;2.95;;;;;;;19.93;nan;100893.75;5032610;28;20032;-62
2022/09/13 07:36:07;;;;;;;5.38;2.58;;;;;;;20.03;nan;100899.25;5032508;28;20091;-60
2022/09/13 07:38:34;;;;;;;7.28;2.65;;;;;;;20.14;nan;100897.53;5032278;28;20025;-65
2022/09/13 07:40:59;;;;;;;4.38;2.35;;;;;;;20.46;nan;100897.09;5048870;28;20108;-62
2022/09/13 07:43:25;;;;;;;4.28;2.33;;;;;;;20.72;nan;100901.41;5032224;28;20037;-60
2022/09/13 07:45:58;;;;;;;4.65;2.25;;;;;;;21.04;nan;100899.03;5031937;28;20056;-62
2022/09/13 07:48:25;;;;;;;4.40;2.15;;;;;;;21.23;nan;100851.19;5033329;28;20472;-62
2022/09/13 07:50:59;;;;;;;2.80;2.10;;;;;;;21.60;nan;100870.66;5033252;28;20037;-61
2022/09/13 07:53:24;;;;;;;4.25;2.00;;;;;;;21.84;nan;100920.47;5033429;28;20468;-62
2022/09/13 07:55:49;;;;;;;3.95;2.05;;;;;;;21.33;nan;100825.44;5033231;28;20284;-62
2022/09/13 07:58:14;;;;;;;4.30;1.70;;;;;;;22.27;nan;100928.69;5033315;28;20048;-62
2022/09/13 08:00:40;;;;;;;2.35;1.73;;;;;;;21.86;nan;100883.69;5032955;28;20453;-63
2022/09/13 08:03:06;;;;;;;2.60;1.60;;;;;;;21.97;nan;100936.50;5032063;28;20041;-63
2022/09/13 08:05:32;;;;;;;3.00;1.35;;;;;;;21.82;nan;100934.97;5031640;28;20038;-61
2022/09/13 08:07:57;;;;;;;2.50;1.60;;;;;;;21.62;nan;100896.34;5033213;28;20490;-62
2022/09/13 08:10:22;;;;;;;2.92;1.38;;;;;;;21.68;nan;100905.72;5031528;28;20053;-61
2022/09/13 08:12:48;;;;;;;3.05;1.58;;;;;;;21.99;nan;100942.59;5028195;28;20096;-62
2022/09/13 08:15:13;;;;;;;3.10;1.40;;;;;;;22.13;nan;100928.09;5029636;28;20044;-63
2022/09/13 08:17:38;;;;;;;3.78;1.27;;;;;;;22.37;nan;100897.50;5029730;28;20570;-62
2022/09/13 08:20:04;;;;;;;2.15;1.38;;;;;;;23.16;nan;100959.94;5030322;28;20038;-63
2022/09/13 08:22:29;;;;;;;2.00;1.25;;;;;;;23.15;nan;100953.72;5029651;28;20091;-62
2022/09/13 08:24:55;;;;;;;2.28;1.40;;;;;;;22.96;nan;100975.03;5029841;28;20033;-63
2022/09/13 08:27:20;;;;;;;1.88;1.42;;;;;;;22.82;nan;100949.31;5031189;28;20091;-64
2022/09/13 08:29:45;;;;;;;2.17;1.40;;;;;;;22.73;nan;100970.66;5031510;28;20034;-62
2022/09/13 08:32:11;;;;;;;2.40;1.35;;;;;;;22.14;nan;100911.03;5031145;28;20059;-63
2022/09/13 08:34:36;;;;;;;3.08;1.50;;;;;;;22.08;nan;100970.50;5046461;28;20033;-64
2022/09/13 08:37:02;;;;;;;3.85;1.05;;;;;;;21.91;nan;100958.41;5029106;28;20500;-62
2022/09/13 08:39:27;;;;;;;1.48;1.08;;;;;;;21.86;nan;100965.94;5029601;28;20045;-63
2022/09/13 08:42:00;;;;;;;2.88;1.13;;;;;;;21.69;nan;100953.81;5030086;28;20033;-64
2022/09/13 08:44:32;;;;;;;3.63;1.65;;;;;;;21.76;nan;100970.28;5029595;28;20072;-63
2022/09/13 08:47:25;;;;;;;3.83;1.30;;;;;;;21.88;nan;100966.69;5029973;28;20080;-62
2022/09/13 08:50:02;;;;;;;4.43;1.40;;;;;;;21.53;nan;100909.56;5030575;28;20385;-64
2022/09/13 08:52:31;;;;;;;3.83;1.23;;;;;;;21.60;nan;100965.22;5030869;28;20029;-62
2022/09/13 08:54:58;;;;;;;3.85;1.15;;;;;;;20.86;nan;100807.59;5029568;28;20034;-64
2022/09/13 08:57:37;;;;;;;4.13;1.10;;;;;;;21.61;nan;100923.22;5029419;28;20083;-63
2022/09/13 09:00:05;;;;;;;3.05;1.20;;;;;;;22.06;nan;100972.44;5029712;28;20056;-63
2022/09/13 09:02:40;;;;;;;2.80;0.98;;;;;;;22.18;nan;100979.53;5030569;28;20030;-65
2022/09/13 09:05:20;;;;;;;2.50;1.00;;;;;;;22.09;nan;100983.81;5030934;28;20096;-65
2022/09/13 09:07:52;;;;;;;2.47;1.07;;;;;;;21.77;nan;100919.22;5030843;28;20031;-64
2022/09/13 09:10:21;;;;;;;2.15;1.30;;;;;;;21.56;nan;100928.94;5030753;28;20767;-64
2022/09/13 09:12:53;;;;;;;1.85;0.77;;;;;;;21.69;nan;100983.28;5030781;28;20041;-62
2022/09/13 09:15:22;;;;;;;1.58;0.85;;;;;;;21.39;nan;100941.91;5029369;28;20032;-62
2022/09/13 09:18:03;;;;;;;2.47;1.20;;;;;;;21.55;nan;100970.09;5028521;28;20401;-65
2022/09/13 09:20:33;;;;;;;2.25;0.88;;;;;;;21.88;nan;100972.06;5029590;28;20026;-64
2022/09/13 09:23:04;;;;;;;2.83;1.10;;;;;;;22.06;nan;100951.88;5029520;28;20440;-61
2022/09/13 09:25:30;;;;;;;5.40;1.55;;;;;;;22.51;nan;100979.53;5029436;28;20030;-63
2022/09/13 09:27:57;;;;;;;5.47;1.23;;;;;;;22.07;nan;100924.06;5028967;28;20039;-63
2022/09/13 09:30:22;;;;;;;5.03;1.23;;;;;;;22.12;nan;100921.91;5030236;28;20099;-63
2022/09/13 09:33:09;;;;;;;5.13;1.25;;;;;;;22.24;nan;100987.94;5030773;28;20037;-64
2022/09/13 09:35:37;;;;;;;3.83;1.00;;;;;;;22.03;nan;100989.63;5029313;28;20025;-67
2022/09/13 09:38:40;;;;;;;5.18;1.00;;;;;;;21.71;nan;100986.72;5030601;28;20064;-64
2022/09/13 09:41:22;;;;;;;3.78;1.30;;;;;;;21.79;nan;100978.94;5029208;28;20583;-64
2022/09/13 09:44:16;;;;;;;5.03;1.20;;;;;;;22.10;nan;100979.25;5028890;28;20053;-63
2022/09/13 09:46:43;;;;;;;3.10;1.00;;;;;;;21.65;nan;100881.84;5027381;28;20091;-62
2022/09/13 09:52:05;;;;;;;1.70;1.08;;;;;;;22.13;nan;100933.44;5030439;28;20415;-62
2022/09/13 09:54:31;;;;;;;;;;;;;;;22.44;nan;100994.44;5030421;28;20030;-63
2022/09/13 09:56:57;;;;;;;3.60;1.17;;;;;;;22.87;nan;100990.03;5031413;28;19913;-65
2022/09/13 09:59:32;;;;;;;3.75;1.27;;;;;;;23.72;nan;100996.41;5032787;28;20041;-63
2022/09/13 10:01:59;;;;;;;2.70;0.90;;;;;;;24.26;nan;101009.66;5033711;28;20029;-65
2022/09/13 10:04:24;;;;;;;3.20;1.13;;;;;;;23.81;nan;100957.13;5032604;28;20110;-65
2022/09/13 10:07:07;;;;;;;4.43;1.30;;;;;;;24.15;nan;100958.63;5033828;28;20522;-63
2022/09/13 10:09:33;;;;;;;4.50;1.17;;;;;;;24.68;nan;101018.50;5032341;28;20238;-64
2022/09/13 10:11:58;;;;;;;3.83;1.05;;;;;;;24.92;nan;101013.69;5032644;28;20086;-62
2022/09/13 10:14:33;;;;;;;3.83;1.17;;;;;;;25.44;nan;101017.03;5032729;28;20132;-63
2022/09/13 10:17:17;;;;;;;3.40;1.08;;;;;;;26.14;nan;101011.34;5033298;28;20041;-66
2022/09/13 10:20:00;;;;;;;2.38;1.05;;;;;;;26.54;nan;101001.16;5032436;28;20029;-68
2022/09/13 10:22:29;;;;;;;2.95;1.20;;;;;;;25.73;nan;101016.06;5033153;28;20519;-64
2022/09/13 10:25:13;;;;;;;4.45;0.98;;;;;;;24.81;nan;100943.75;5032636;28;20481;-62
2022/09/13 10:27:41;;;;;;;4.70;1.45;;;;;;;24.32;nan;100989.44;5032170;28;20037;-63
2022/09/13 10:30:27;;;;;;;5.53;1.10;;;;;;;23.60;nan;100964.31;5031419;28;20037;-63
2022/09/13 10:32:55;;;;;;;4.10;1.33;;;;;;;23.41;nan;100997.25;5031894;28;20029;-63
2022/09/13 10:35:21;;;;;;;4.28;1.55;;;;;;;23.49;nan;100978.66;5033303;28;20033;-63
2022/09/13 10:37:46;;;;;;;2.78;1.27;;;;;;;24.34;nan;100995.56;5033267;28;20083;-63
2022/09/13 10:40:21;;;;;;;2.97;1.08;;;;;;;25.09;nan;100994.16;5033402;28;20042;-64
2022/09/13 10:42:55;;;;;;;3.80;1.17;;;;;;;25.62;nan;100993.81;5032059;28;20040;-64
2022/09/13 10:45:23;;;;;;;4.78;1.20;;;;;;;25.61;nan;100966.00;5033333;28;20040;-65
2022/09/13 10:47:51;;;;;;;2.90;0.80;;;;;;;26.19;nan;101003.69;5032807;28;20472;-65
2022/09/13 10:50:25;;;;;;;2.63;1.00;;;;;;;25.36;nan;100941.44;5030629;28;20057;-64
2022/09/13 10:52:56;;;;;;;4.47;1.40;;;;;;;25.22;nan;100952.63;5030488;28;20048;-67
2022/09/13 10:55:21;;;;;;;2.72;1.30;;;;;;;25.07;nan;101000.69;5032753;28;20033;-67
2022/09/13 10:57:47;;;;;;;2.15;0.82;;;;;;;25.38;nan;100996.03;5033142;28;20048;-62
2022/09/13 11:00:16;;;;;;;4.25;1.00;;;;;;;26.06;nan;100997.72;5031833;28;20523;-65
2022/09/13 11:03:26;;;;;;;4.18;1.10;;;;;;;26.91;nan;101027.34;5031466;28;20099;-64
2022/09/13 11:06:28;;;;;;;2.05;0.80;;;;;;;28.14;nan;101034.72;5011019;28;20080;-63
2022/09/13 11:09:01;;;;;;;1.95;0.70;;;;;;;27.76;nan;100996.16;5031688;28;20351;-64
2022/09/13 11:11:46;;;;;;;4.03;1.10;;;;;;;26.25;nan;100966.19;5048025;28;20084;-67
2022/09/13 11:14:38;;;;;;;4.05;0.85;;;;;;;25.05;nan;101027.72;5031580;28;20405;-64
2022/09/13 11:17:16;;;;;;;3.30;1.00;;;;;;;25.08;nan;101023.91;5047693;28;20033;-67
2022/09/13 11:19:48;;;;;;;2.03;0.77;;;;;;;25.54;nan;101016.06;5031918;28;20033;-64
2022/09/13 11:22:26;;;;;;;2.83;1.00;;;;;;;26.09;nan;101011.78;5032512;28;20044;-66
2022/09/13 11:25:16;;;;;;;3.13;0.77;;;;;;;25.96;nan;101019.31;5031462;28;20033;-65
2022/09/13 11:28:06;;;;;;;2.30;0.88;;;;;;;26.12;nan;100997.97;5032289;28;20065;-64
2022/09/13 11:30:39;;;;;;;2.05;0.90;;;;;;;26.64;nan;101007.38;5032121;28;20112;-66
2022/09/13 11:33:23;;;;;;;3.40;0.93;;;;;;;27.17;nan;101023.78;5031088;28;20037;-62
2022/09/13 11:35:59;;;;;;;3.40;0.90;;;;;;;26.21;nan;101016.03;5031258;28;20033;-68
2022/09/13 11:38:34;;;;;;;2.92;0.80;;;;;;;26.78;nan;101023.09;5031495;28;20366;-63
2022/09/13 11:41:10;;;;;;;2.58;1.35;;;;;;;27.93;nan;101010.69;5031319;28;20041;-66
2022/09/13 11:44:27;;;;;;;2.47;0.68;;;;;;;28.21;nan;101049.31;5031976;28;20034;-65
2022/09/13 11:47:10;;;;;;;3.20;0.70;;;;;;;28.24;nan;100984.03;4973014;28;20049;-64
2022/09/13 11:49:57;;;;;;;3.28;0.90;;;;;;;28.56;nan;101038.38;5030842;28;20029;-66
2022/09/13 11:52:32;;;;;;;3.75;0.75;;;;;;;28.82;nan;101047.34;5031871;28;20447;-62
2022/09/13 11:55:17;;;;;;;3.63;1.10;;;;;;;29.13;nan;101054.94;5030658;28;20041;-67